Time;durP1;ratioP1;P1;durP2;ratioP2;P2;SDS_P1;SDS_P2;PMS_P1;PMS_P2;Temp;Humidity;BMP_temperature;BMP_pressure;BME280_temperature;BME280_humidity;BME280_pressure;Samples;Min_cycle;Max_cycle;Signal;HPM_P1;HPM_P2
2022/11/27 00:01:14;;;;;;;63.05;15.98;;;;;;;4.86;100.00;102424.25;5052441;28;20033;-49
2022/11/27 00:03:40;;;;;;;56.65;15.98;;;;;;;4.80;100.00;102421.22;5052274;28;20025;-48
2022/11/27 00:06:07;;;;;;;50.95;15.20;;;;;;;4.75;100.00;102414.84;5052557;28;20028;-48
2022/11/27 00:08:32;;;;;;;57.53;17.35;;;;;;;4.72;100.00;102424.84;5051614;28;20388;-49
2022/11/27 00:11:05;;;;;;;51.78;16.10;;;;;;;4.70;100.00;102421.25;5052399;28;20021;-49
2022/11/27 00:13:30;;;;;;;63.10;16.55;;;;;;;4.65;100.00;102422.56;5055834;28;20476;-47
2022/11/27 00:15:56;;;;;;;59.78;16.17;;;;;;;4.61;100.00;102421.47;5058541;28;20484;-44
2022/11/27 00:18:21;;;;;;;47.58;16.55;;;;;;;4.57;100.00;102412.66;5059006;28;20029;-44
2022/11/27 00:20:47;;;;;;;61.33;17.25;;;;;;;4.53;100.00;102413.19;5058924;28;20068;-50
2022/11/27 00:23:12;;;;;;;60.88;17.42;;;;;;;4.47;100.00;102412.69;5058824;28;20368;-47
2022/11/27 00:25:37;;;;;;;56.60;18.10;;;;;;;4.40;100.00;102415.50;5058527;28;20060;-49
2022/11/27 00:28:03;;;;;;;63.60;16.90;;;;;;;4.35;100.00;102401.50;5059017;28;20384;-48
2022/11/27 00:30:28;;;;;;;57.00;17.27;;;;;;;4.35;100.00;102399.84;5058403;28;20032;-48
2022/11/27 00:32:53;;;;;;;52.50;17.83;;;;;;;4.31;100.00;102399.47;5058561;28;20064;-50
2022/11/27 00:35:18;;;;;;;52.47;17.23;;;;;;;4.33;100.00;102390.28;5059017;28;20477;-47
2022/11/27 00:37:44;;;;;;;58.67;18.77;;;;;;;4.30;100.00;102378.16;5058189;28;20053;-48
2022/11/27 00:40:09;;;;;;;54.97;18.48;;;;;;;4.25;100.00;102380.34;5058892;28;20033;-49
2022/11/27 00:42:35;;;;;;;67.32;18.02;;;;;;;4.24;100.00;102378.56;5058784;28;20027;-49
2022/11/27 00:45:00;;;;;;;53.90;17.40;;;;;;;4.16;100.00;102384.72;5058482;28;20395;-49
2022/11/27 00:47:25;;;;;;;59.83;18.23;;;;;;;4.12;100.00;102385.25;5058678;28;20071;-48
2022/11/27 00:49:51;;;;;;;62.83;18.40;;;;;;;4.06;100.00;102392.41;5058626;28;20048;-48
2022/11/27 00:52:16;;;;;;;61.80;19.17;;;;;;;4.01;100.00;102378.38;5058580;28;20025;-49
2022/11/27 00:54:41;;;;;;;56.45;18.67;;;;;;;3.94;100.00;102379.53;5058544;28;20468;-49
2022/11/27 00:57:06;;;;;;;55.03;19.23;;;;;;;3.90;100.00;102386.03;5058822;28;20079;-49
2022/11/27 00:59:32;;;;;;;60.35;17.67;;;;;;;3.88;100.00;102377.38;5058469;28;20132;-49
2022/11/27 01:01:57;;;;;;;64.15;19.23;;;;;;;3.87;100.00;102370.47;5058539;28;20024;-49
2022/11/27 01:04:22;;;;;;;77.50;19.85;;;;;;;3.79;100.00;102361.31;5058185;28;20032;-47
2022/11/27 01:06:47;;;;;;;65.38;20.50;;;;;;;3.74;100.00;102360.06;5058181;28;20029;-48
2022/11/27 01:09:13;;;;;;;74.78;20.92;;;;;;;3.69;100.00;102358.78;5058836;28;20033;-48
2022/11/27 01:11:39;;;;;;;74.35;20.77;;;;;;;3.67;100.00;102355.22;5057997;28;20029;-47
2022/11/27 01:14:16;;;;;;;65.30;21.42;;;;;;;3.68;100.00;102359.53;5058925;28;20031;-47
2022/11/27 01:16:42;;;;;;;66.15;19.65;;;;;;;3.58;100.00;102353.69;5058478;28;20028;-50
2022/11/27 01:19:09;;;;;;;66.32;19.75;;;;;;;3.58;100.00;102343.50;5058083;28;20025;-48
2022/11/27 01:21:34;;;;;;;67.95;19.80;;;;;;;3.56;100.00;102337.38;5058291;28;20017;-49
2022/11/27 01:24:01;;;;;;;61.40;19.75;;;;;;;3.53;100.00;102341.34;5057983;28;20025;-48
2022/11/27 01:26:27;;;;;;;66.90;20.97;;;;;;;3.49;100.00;102352.94;5054370;28;20017;-48
2022/11/27 01:28:54;;;;;;;71.78;22.08;;;;;;;3.43;100.00;102344.78;5054893;28;20294;-49
2022/11/27 01:31:22;;;;;;;59.38;20.92;;;;;;;3.39;100.00;102342.75;5055371;28;20028;-48
2022/11/27 01:33:52;;;;;;;64.65;21.40;;;;;;;3.38;100.00;102341.88;5054614;28;20066;-48
2022/11/27 01:36:18;;;;;;;76.65;22.80;;;;;;;3.36;100.00;102342.50;5055245;28;20127;-47
2022/11/27 01:38:43;;;;;;;70.57;23.38;;;;;;;3.40;100.00;102331.81;5055299;28;20103;-49
2022/11/27 01:41:28;;;;;;;72.57;24.05;;;;;;;3.41;100.00;102320.84;5055150;28;20368;-48
2022/11/27 01:43:56;;;;;;;66.47;22.80;;;;;;;3.41;100.00;102319.19;5054629;28;20025;-49
2022/11/27 01:46:28;;;;;;;79.75;23.50;;;;;;;3.41;100.00;102315.75;5054827;28;20074;-49
2022/11/27 01:48:58;;;;;;;75.05;25.15;;;;;;;3.42;100.00;102318.41;5054538;28;20028;-49
2022/11/27 01:51:24;;;;;;;68.47;23.27;;;;;;;3.47;100.00;102316.22;5054937;28;20412;-47
2022/11/27 01:53:51;;;;;;;69.22;23.05;;;;;;;3.48;100.00;102317.13;5054141;28;20504;-45
2022/11/27 01:56:18;;;;;;;70.80;22.83;;;;;;;3.51;100.00;102313.19;5054743;28;20044;-45
2022/11/27 01:58:43;;;;;;;73.10;23.33;;;;;;;3.54;100.00;102292.13;5054750;28;20032;-48
2022/11/27 02:01:09;;;;;;;79.72;23.35;;;;;;;3.51;100.00;102282.59;5054217;28;20063;-48
2022/11/27 02:03:35;;;;;;;63.03;22.42;;;;;;;3.54;100.00;102281.94;5054421;28;20111;-49
2022/11/27 02:06:00;;;;;;;66.68;22.23;;;;;;;3.52;100.00;102271.63;5054837;28;20444;-48
2022/11/27 02:08:25;;;;;;;65.45;20.88;;;;;;;3.52;100.00;102268.19;5054118;28;20094;-48
2022/11/27 02:11:07;;;;;;;66.50;19.88;;;;;;;3.49;100.00;102273.06;5054031;28;20044;-47
2022/11/27 02:13:46;;;;;;;60.85;22.40;;;;;;;3.48;100.00;102271.25;5054594;28;20068;-48
2022/11/27 02:16:21;;;;;;;62.25;20.42;;;;;;;3.45;100.00;102257.50;5054053;28;20376;-48
2022/11/27 02:19:06;;;;;;;67.25;21.08;;;;;;;3.45;100.00;102256.59;5054099;28;20032;-49
2022/11/27 02:22:23;;;;;;;65.13;20.92;;;;;;;3.45;100.00;102246.41;5053574;28;20028;-44
2022/11/27 02:24:57;;;;;;;;;;;;;;;3.47;100.00;102244.84;5054355;28;20029;-48
2022/11/27 02:27:50;;;;;;;64.85;21.88;;;;;;;3.40;100.00;102248.56;5054342;28;19912;-49
2022/11/27 02:30:16;;;;;;;59.88;22.05;;;;;;;3.36;100.00;102244.00;5053872;28;20178;-48
2022/11/27 02:32:45;;;;;;;56.20;22.00;;;;;;;3.34;100.00;102237.00;5053954;28;20017;-46
2022/11/27 02:35:21;;;;;;;64.82;20.65;;;;;;;3.32;100.00;102243.63;5054332;28;20029;-48
2022/11/27 02:37:49;;;;;;;62.55;22.27;;;;;;;3.32;100.00;102233.44;5053166;28;20486;-47
2022/11/27 02:40:17;;;;;;;;;;;;;;;3.36;100.00;102235.47;5054227;28;20048;-48
2022/11/27 02:42:48;;;;;;;58.63;21.40;;;;;;;3.32;100.00;102230.88;5053364;28;20000;-48
2022/11/27 02:45:21;;;;;;;55.35;19.85;;;;;;;3.27;100.00;102223.75;5053973;28;20067;-49
2022/11/27 02:47:49;;;;;;;59.72;21.63;;;;;;;3.22;100.00;102226.72;5053763;28;20029;-49
2022/11/27 02:50:18;;;;;;;;;;;;;;;3.28;100.00;102228.09;5053781;28;20024;-49
2022/11/27 02:52:45;;;;;;;59.42;20.83;;;;;;;3.22;100.00;102232.69;5053124;28;20383;-47
2022/11/27 02:55:15;;;;;;;71.68;22.10;;;;;;;3.22;100.00;102237.78;5053987;28;20053;-49
2022/11/27 02:57:42;;;;;;;61.72;20.35;;;;;;;3.22;100.00;102234.34;5053031;28;20035;-49
2022/11/27 03:00:09;;;;;;;74.80;22.70;;;;;;;3.21;100.00;102235.09;5053307;28;20044;-48
2022/11/27 03:02:40;;;;;;;57.72;20.80;;;;;;;3.23;100.00;102234.47;5053478;28;20040;-49
2022/11/27 03:05:11;;;;;;;52.10;20.30;;;;;;;3.25;100.00;102239.69;5053107;28;20033;-48
2022/11/27 03:07:51;;;;;;;53.05;19.20;;;;;;;3.27;100.00;102236.50;5053309;28;20076;-49
2022/11/27 03:10:23;;;;;;;61.30;20.17;;;;;;;3.32;100.00;102248.72;5053607;28;20120;-48
2022/11/27 03:12:50;;;;;;;49.83;19.35;;;;;;;3.36;100.00;102248.22;5052504;28;20491;-49
2022/11/27 03:15:15;;;;;;;50.65;18.60;;;;;;;3.39;100.00;102233.16;5053220;28;20060;-49
2022/11/27 03:18:10;;;;;;;60.97;20.30;;;;;;;3.44;100.00;102226.78;5052965;28;20053;-48
2022/11/27 03:20:39;;;;;;;54.38;19.23;;;;;;;3.45;100.00;102224.34;5050610;28;20480;-48
2022/11/27 03:23:05;;;;;;;56.25;18.17;;;;;;;3.46;100.00;102222.72;5053432;28;20103;-48
2022/11/27 03:25:30;;;;;;;46.28;17.48;;;;;;;3.50;100.00;102213.63;5052744;28;20184;-46
2022/11/27 03:28:02;;;;;;;51.97;18.15;;;;;;;3.54;100.00;102218.19;5052764;28;20048;-48
2022/11/27 03:30:27;;;;;;;43.65;16.00;;;;;;;3.57;100.00;102208.28;5053273;28;20056;-44
2022/11/27 03:32:53;;;;;;;45.80;16.63;;;;;;;3.58;100.00;102208.38;5052508;28;20048;-48
2022/11/27 03:35:22;;;;;;;41.40;16.60;;;;;;;3.59;100.00;102217.81;5053028;28;20028;-43
2022/11/27 03:37:47;;;;;;;48.95;17.55;;;;;;;3.62;100.00;102205.31;5052886;28;20033;-48
2022/11/27 03:40:13;;;;;;;47.40;17.42;;;;;;;3.63;100.00;102207.09;5052469;28;20037;-48
2022/11/27 03:43:03;;;;;;;49.13;17.50;;;;;;;3.66;100.00;102203.91;5052375;28;20025;-48
2022/11/27 03:45:47;;;;;;;43.17;16.35;;;;;;;3.67;100.00;102200.59;5052887;28;20361;-45
2022/11/27 03:48:37;;;;;;;43.33;15.88;;;;;;;3.69;100.00;102185.41;5051544;28;20453;-47
2022/11/27 03:51:20;;;;;;;55.17;17.77;;;;;;;3.68;100.00;102181.06;5052709;28;20155;-49
2022/11/27 03:54:03;;;;;;;51.92;17.90;;;;;;;3.70;100.00;102187.19;5052154;28;20087;-49
2022/11/27 03:56:54;;;;;;;49.55;16.75;;;;;;;3.68;100.00;102189.63;5052723;28;20104;-45
2022/11/27 03:59:27;;;;;;;57.15;17.75;;;;;;;3.71;100.00;102189.84;5052632;28;20053;-48
2022/11/27 04:01:52;;;;;;;42.22;16.38;;;;;;;3.72;100.00;102189.09;5052039;28;20028;-49
2022/11/27 04:04:18;;;;;;;47.67;16.55;;;;;;;3.74;100.00;102184.09;5052588;28;20025;-49
2022/11/27 04:06:43;;;;;;;53.47;15.93;;;;;;;3.75;100.00;102180.78;5052281;28;20038;-48
2022/11/27 04:09:08;;;;;;;43.90;16.38;;;;;;;3.77;100.00;102189.44;5051699;28;20123;-47
2022/11/27 04:11:34;;;;;;;48.20;16.20;;;;;;;3.79;100.00;102190.47;5052354;28;20063;-49
2022/11/27 04:13:59;;;;;;;41.33;16.48;;;;;;;3.79;100.00;102198.09;5052242;28;20078;-45
2022/11/27 04:16:24;;;;;;;43.20;16.50;;;;;;;3.79;100.00;102193.00;5052717;28;20029;-46
2022/11/27 04:18:50;;;;;;;51.70;15.68;;;;;;;3.83;100.00;102204.34;5052368;28;20033;-49
2022/11/27 04:21:15;;;;;;;39.75;14.80;;;;;;;3.85;100.00;102206.25;5052304;28;20070;-48
2022/11/27 04:23:41;;;;;;;47.28;16.08;;;;;;;3.86;100.00;102209.69;5051895;28;20161;-48
2022/11/27 04:26:07;;;;;;;45.75;14.70;;;;;;;3.86;100.00;102215.69;5052526;28;20029;-48
2022/11/27 04:28:32;;;;;;;50.60;15.68;;;;;;;3.88;100.00;102214.13;5051502;28;20376;-48
2022/11/27 04:30:57;;;;;;;40.50;15.38;;;;;;;3.88;100.00;102203.94;5052299;28;20033;-48
2022/11/27 04:33:23;;;;;;;40.88;15.55;;;;;;;3.86;100.00;102197.84;5052545;28;20107;-48
2022/11/27 04:35:50;;;;;;;37.90;15.43;;;;;;;3.86;100.00;102195.28;5051514;28;20025;-48
2022/11/27 04:38:15;;;;;;;45.08;14.45;;;;;;;3.85;100.00;102198.59;5052214;28;20122;-48
2022/11/27 04:40:41;;;;;;;44.67;14.30;;;;;;;3.86;100.00;102190.19;5052214;28;20536;-48
2022/11/27 04:43:06;;;;;;;39.47;14.45;;;;;;;3.85;100.00;102192.59;5051766;28;20032;-48
2022/11/27 04:45:31;;;;;;;42.95;14.32;;;;;;;3.86;100.00;102204.56;5051944;28;20108;-47
2022/11/27 04:47:57;;;;;;;36.85;14.35;;;;;;;3.84;100.00;102201.03;5052401;28;20155;-48
2022/11/27 04:50:23;;;;;;;41.75;14.73;;;;;;;3.86;100.00;102194.38;5051510;28;20052;-48
2022/11/27 04:52:48;;;;;;;37.72;13.93;;;;;;;3.85;100.00;102187.47;5051707;28;20054;-47
2022/11/27 04:55:13;;;;;;;40.40;14.70;;;;;;;3.83;100.00;102182.28;5052233;28;20028;-47
2022/11/27 04:57:39;;;;;;;42.40;15.02;;;;;;;3.84;100.00;102167.88;5051327;28;20067;-49
2022/11/27 05:00:05;;;;;;;32.63;14.02;;;;;;;3.82;100.00;102160.09;5052744;28;20036;-49
2022/11/27 05:02:30;;;;;;;38.15;13.77;;;;;;;3.81;100.00;102158.31;5056104;28;20028;-46
2022/11/27 05:04:56;;;;;;;47.65;14.48;;;;;;;3.82;100.00;102156.66;5055009;28;20033;-48
2022/11/27 05:07:21;;;;;;;44.28;13.75;;;;;;;3.85;100.00;102157.78;5055751;28;20025;-48
2022/11/27 05:09:46;;;;;;;45.30;14.15;;;;;;;3.85;100.00;102157.78;5055420;28;20033;-46
2022/11/27 05:12:12;;;;;;;35.58;13.07;;;;;;;3.86;100.00;102149.38;5055172;28;20018;-45
2022/11/27 05:14:37;;;;;;;39.30;13.25;;;;;;;3.88;100.00;102141.84;5055680;28;20110;-47
2022/11/27 05:17:02;;;;;;;37.30;12.43;;;;;;;3.89;100.00;102139.41;5055605;28;20037;-49
2022/11/27 05:19:30;;;;;;;35.72;12.05;;;;;;;3.88;100.00;102140.16;5054974;28;20464;-49
2022/11/27 05:21:55;;;;;;;40.20;12.75;;;;;;;3.93;100.00;102137.97;5055483;28;20103;-48
2022/11/27 05:24:24;;;;;;;44.78;12.88;;;;;;;3.92;100.00;102144.72;5054991;28;20103;-49
2022/11/27 05:26:50;;;;;;;30.73;11.50;;;;;;;3.93;100.00;102136.31;5055014;28;20029;-48
2022/11/27 05:29:16;;;;;;;39.17;12.63;;;;;;;3.95;100.00;102131.31;5055412;28;20340;-49
2022/11/27 05:31:42;;;;;;;35.72;11.73;;;;;;;3.94;100.00;102133.00;5054689;28;20082;-48
2022/11/27 05:34:08;;;;;;;32.33;11.73;;;;;;;3.95;100.00;102134.78;5055219;28;20021;-49
2022/11/27 05:36:34;;;;;;;36.78;12.52;;;;;;;3.97;100.00;102122.13;5054939;28;20094;-48
2022/11/27 05:39:00;;;;;;;32.83;11.85;;;;;;;3.98;100.00;102112.81;5054749;28;20045;-49
2022/11/27 05:41:26;;;;;;;35.95;12.05;;;;;;;3.98;100.00;102117.91;5054939;28;20027;-49
2022/11/27 05:43:51;;;;;;;34.20;12.07;;;;;;;3.98;100.00;102121.38;5055020;28;20116;-48
2022/11/27 05:46:20;;;;;;;35.28;12.00;;;;;;;3.99;100.00;102117.16;5054806;28;20071;-48
2022/11/27 05:48:46;;;;;;;39.25;12.55;;;;;;;4.00;100.00;102121.47;5054607;28;20053;-49
2022/11/27 05:51:11;;;;;;;40.72;12.43;;;;;;;4.01;100.00;102115.63;5055204;28;20060;-48
2022/11/27 05:53:36;;;;;;;48.40;14.23;;;;;;;4.02;100.00;102114.84;5054132;28;20021;-44
2022/11/27 05:56:14;;;;;;;25.63;11.43;;;;;;;4.01;100.00;102106.28;5054701;28;20067;-48
2022/11/27 05:58:40;;;;;;;36.17;12.75;;;;;;;4.02;100.00;102102.09;5054635;28;20068;-48
2022/11/27 06:01:08;;;;;;;33.55;12.82;;;;;;;4.02;100.00;102094.44;5054464;28;20021;-48
2022/11/27 06:03:37;;;;;;;36.35;13.60;;;;;;;4.03;100.00;102096.19;5054320;28;20052;-48
2022/11/27 06:06:10;;;;;;;36.33;13.20;;;;;;;4.03;100.00;102091.09;5054802;28;20063;-48
2022/11/27 06:08:36;;;;;;;37.17;13.73;;;;;;;4.03;100.00;102091.09;5053606;28;20128;-48
2022/11/27 06:11:09;;;;;;;36.08;14.05;;;;;;;4.05;100.00;102094.66;5054319;28;20029;-48
2022/11/27 06:13:35;;;;;;;33.17;12.25;;;;;;;4.05;100.00;102087.88;5053870;28;20028;-49
2022/11/27 06:16:04;;;;;;;40.30;13.52;;;;;;;4.07;100.00;102093.13;5054510;28;20079;-47
2022/11/27 06:18:29;;;;;;;31.05;13.10;;;;;;;4.08;100.00;102090.69;5054759;28;20021;-48
2022/11/27 06:20:55;;;;;;;38.47;12.57;;;;;;;4.08;100.00;102085.59;5053630;28;20504;-48
2022/11/27 06:23:21;;;;;;;43.55;13.13;;;;;;;4.11;100.00;102090.03;5054379;28;20047;-49
2022/11/27 06:25:46;;;;;;;38.58;12.77;;;;;;;4.12;100.00;102092.69;5054689;28;20104;-49
2022/11/27 06:28:11;;;;;;;33.22;11.88;;;;;;;4.14;100.00;102079.16;5053775;28;20056;-48
2022/11/27 06:30:37;;;;;;;35.80;13.27;;;;;;;4.15;100.00;102079.28;5053720;28;20036;-48
2022/11/27 06:33:02;;;;;;;36.22;13.57;;;;;;;4.17;100.00;102082.84;5054326;28;20021;-47
2022/11/27 06:35:27;;;;;;;31.33;12.18;;;;;;;4.20;100.00;102089.84;5053713;28;20388;-49
2022/11/27 06:37:52;;;;;;;38.92;12.38;;;;;;;4.19;100.00;102086.38;5053764;28;20480;-47
2022/11/27 06:40:18;;;;;;;35.13;12.93;;;;;;;4.22;100.00;102086.63;5054360;28;20035;-48
2022/11/27 06:42:43;;;;;;;37.13;12.90;;;;;;;4.21;100.00;102092.50;5053567;28;20033;-50
2022/11/27 06:45:09;;;;;;;32.35;13.00;;;;;;;4.19;100.00;102081.28;5053730;28;20029;-49
2022/11/27 06:47:34;;;;;;;37.75;12.85;;;;;;;4.18;100.00;102086.28;5053658;28;20480;-44
2022/11/27 06:49:59;;;;;;;40.53;13.27;;;;;;;4.20;100.00;102090.72;5053301;28;20028;-47
2022/11/27 06:52:24;;;;;;;46.30;13.75;;;;;;;4.15;100.00;102081.84;5053561;28;20029;-46
2022/11/27 06:54:50;;;;;;;40.13;13.18;;;;;;;4.16;100.00;102073.41;5053546;28;20037;-49
2022/11/27 06:57:15;;;;;;;40.45;14.13;;;;;;;4.14;100.00;102072.38;5053404;28;20025;-48
2022/11/27 06:59:40;;;;;;;37.60;13.45;;;;;;;4.14;100.00;102072.38;5053403;28;20049;-49
2022/11/27 07:02:12;;;;;;;38.60;14.55;;;;;;;4.11;100.00;102061.97;5053679;28;20071;-48
2022/11/27 07:04:37;;;;;;;42.35;16.00;;;;;;;4.07;100.00;102071.03;5052553;28;20449;-49
2022/11/27 07:07:02;;;;;;;39.13;15.02;;;;;;;4.07;100.00;102065.94;5053536;28;20508;-49
2022/11/27 07:09:28;;;;;;;43.70;15.85;;;;;;;4.07;100.00;102065.06;5053585;28;20024;-49
2022/11/27 07:11:53;;;;;;;36.95;14.63;;;;;;;4.05;100.00;102054.72;5052401;28;20033;-49
2022/11/27 07:14:18;;;;;;;43.80;15.68;;;;;;;4.05;100.00;102048.75;5053506;28;20358;-48
2022/11/27 07:16:43;;;;;;;37.53;15.85;;;;;;;4.04;100.00;102042.75;5052925;28;20021;-47
2022/11/27 07:19:09;;;;;;;43.22;16.45;;;;;;;4.02;100.00;102035.78;5052633;28;20061;-48
2022/11/27 07:21:36;;;;;;;47.65;14.57;;;;;;;4.00;100.00;102034.75;5052909;28;20039;-48
2022/11/27 07:24:02;;;;;;;42.00;15.68;;;;;;;4.02;100.00;102028.13;5052116;28;20020;-49
2022/11/27 07:26:28;;;;;;;44.83;16.58;;;;;;;3.97;100.00;102027.75;5053213;28;20457;-49
2022/11/27 07:28:54;;;;;;;49.92;16.83;;;;;;;3.98;100.00;102020.97;5052807;28;20111;-48
2022/11/27 07:31:22;;;;;;;48.92;16.75;;;;;;;3.98;100.00;102026.09;5052608;28;20108;-48
2022/11/27 07:33:47;;;;;;;42.03;17.80;;;;;;;3.97;100.00;102021.78;5052477;28;20021;-48
2022/11/27 07:36:16;;;;;;;42.70;17.02;;;;;;;3.95;100.00;102021.63;5053255;28;20552;-49
2022/11/27 07:38:41;;;;;;;44.20;16.40;;;;;;;3.93;100.00;102011.31;5052419;28;20079;-49
2022/11/27 07:41:07;;;;;;;41.40;15.75;;;;;;;3.92;100.00;102011.22;5053002;28;20029;-47
2022/11/27 07:43:33;;;;;;;46.13;17.15;;;;;;;3.89;100.00;102016.97;5052762;28;20028;-49
2022/11/27 07:46:03;;;;;;;49.72;18.95;;;;;;;3.88;100.00;102014.31;5052495;28;20029;-47
2022/11/27 07:48:28;;;;;;;45.03;16.58;;;;;;;3.86;100.00;102009.09;5052572;28;20032;-49
2022/11/27 07:50:53;;;;;;;46.00;17.25;;;;;;;3.85;100.00;102007.31;5052270;28;20033;-47
2022/11/27 07:53:19;;;;;;;44.58;16.92;;;;;;;3.84;100.00;102000.44;5052343;28;20056;-47
2022/11/27 07:55:44;;;;;;;50.38;18.55;;;;;;;3.84;100.00;101992.78;5052416;28;20021;-48
2022/11/27 07:58:09;;;;;;;54.97;18.88;;;;;;;3.83;100.00;101985.03;5052925;28;20104;-49
2022/11/27 08:00:34;;;;;;;49.65;19.60;;;;;;;3.81;100.00;101973.81;5051550;28;20041;-48
2022/11/27 08:03:00;;;;;;;47.88;19.80;;;;;;;3.83;100.00;101973.16;5052519;28;20472;-49
2022/11/27 08:05:26;;;;;;;47.33;19.92;;;;;;;3.82;100.00;101971.38;5052661;28;20083;-47
2022/11/27 08:07:52;;;;;;;56.60;21.95;;;;;;;3.83;100.00;101960.41;5051670;28;20028;-49
2022/11/27 08:10:17;;;;;;;60.90;22.05;;;;;;;3.85;100.00;101963.06;5052751;28;20029;-48
2022/11/27 08:12:43;;;;;;;66.55;23.48;;;;;;;3.85;100.00;101968.16;5052322;28;20065;-48
2022/11/27 08:15:09;;;;;;;57.40;23.02;;;;;;;3.86;100.00;101965.75;5051757;28;20021;-49
2022/11/27 08:17:34;;;;;;;63.35;24.10;;;;;;;3.87;100.00;101962.41;5052256;28;20029;-50
2022/11/27 08:19:59;;;;;;;62.53;26.40;;;;;;;3.90;100.00;101967.75;5052439;28;20025;-48
2022/11/27 08:22:25;;;;;;;63.00;24.80;;;;;;;3.92;100.00;101970.41;5051977;28;20041;-48
2022/11/27 08:24:50;;;;;;;69.93;30.02;;;;;;;3.94;100.00;101966.31;5052305;28;20879;-49
2022/11/27 08:27:16;;;;;;;66.13;31.23;;;;;;;3.95;100.00;101965.53;5051893;28;20033;-46
2022/11/27 08:29:41;;;;;;;85.70;35.90;;;;;;;3.98;100.00;101962.31;5051884;28;20051;-44
2022/11/27 08:32:07;;;;;;;59.80;25.98;;;;;;;4.01;100.00;101957.47;5052250;28;20469;-48
2022/11/27 08:34:32;;;;;;;57.05;26.42;;;;;;;4.04;100.00;101962.78;5053221;28;20032;-50
2022/11/27 08:36:58;;;;;;;66.88;29.95;;;;;;;4.06;100.00;101958.69;5056428;28;20037;-48
2022/11/27 08:39:25;;;;;;;67.13;29.48;;;;;;;4.08;100.00;101963.13;5056488;28;20464;-49
2022/11/27 08:41:51;;;;;;;66.75;28.95;;;;;;;4.11;100.00;101963.34;5055506;28;20033;-49
2022/11/27 08:44:16;;;;;;;61.95;23.98;;;;;;;4.13;100.00;101966.00;5056095;28;20035;-49
2022/11/27 08:46:42;;;;;;;61.47;24.90;;;;;;;4.17;100.00;101968.03;5055847;28;20027;-49
2022/11/27 08:49:07;;;;;;;61.70;26.40;;;;;;;4.20;100.00;101964.81;5055769;28;20112;-47
2022/11/27 08:51:33;;;;;;;55.20;26.63;;;;;;;4.22;100.00;101956.50;5055913;28;20117;-48
2022/11/27 08:53:58;;;;;;;54.40;23.83;;;;;;;4.25;100.00;101953.28;5056186;28;20068;-47
2022/11/27 08:56:24;;;;;;;56.45;27.63;;;;;;;4.28;100.00;101962.03;5055622;28;20473;-49
2022/11/27 08:58:49;;;;;;;61.78;27.27;;;;;;;4.32;100.00;101963.13;5055387;28;20025;-49
2022/11/27 09:01:18;;;;;;;55.30;25.63;;;;;;;4.36;100.00;101977.00;5056059;28;20043;-49
2022/11/27 09:03:44;;;;;;;65.13;30.83;;;;;;;4.40;100.00;101966.25;5055265;28;20055;-49
2022/11/27 09:06:11;;;;;;;67.22;28.33;;;;;;;4.41;100.00;101973.13;5055642;28;20029;-50
2022/11/27 09:08:38;;;;;;;58.83;26.00;;;;;;;4.44;100.00;101973.34;5055735;28;20036;-48
2022/11/27 09:11:04;;;;;;;70.97;28.42;;;;;;;4.49;100.00;101966.91;5054866;28;20413;-49
2022/11/27 09:13:30;;;;;;;58.92;25.67;;;;;;;4.51;100.00;101960.25;5055822;28;20025;-48
2022/11/27 09:15:57;;;;;;;66.40;27.85;;;;;;;4.54;100.00;101965.56;5055555;28;20436;-47
2022/11/27 09:18:23;;;;;;;67.28;27.23;;;;;;;4.57;100.00;101965.81;5055138;28;20035;-48
2022/11/27 09:20:56;;;;;;;57.08;25.73;;;;;;;4.60;100.00;101968.56;5055534;28;20021;-47
2022/11/27 09:23:21;;;;;;;61.15;26.92;;;;;;;4.63;100.00;101964.47;5055734;28;20086;-48
2022/11/27 09:25:48;;;;;;;59.38;27.58;;;;;;;4.66;100.00;101962.13;5054372;28;20465;-48
2022/11/27 09:28:13;;;;;;;54.58;26.10;;;;;;;4.67;100.00;101961.38;5055444;28;20092;-48
2022/11/27 09:30:39;;;;;;;58.28;26.15;;;;;;;4.70;100.00;101962.47;5054422;28;20438;-49
2022/11/27 09:33:04;;;;;;;57.33;25.75;;;;;;;4.70;100.00;101959.91;5055428;28;20048;-50
2022/11/27 09:35:29;;;;;;;55.10;24.88;;;;;;;4.75;100.00;101965.34;5055542;28;20021;-49
2022/11/27 09:37:55;;;;;;;63.85;28.05;;;;;;;4.75;100.00;101960.22;5054676;28;20025;-48
2022/11/27 09:40:20;;;;;;;61.53;28.15;;;;;;;4.76;100.00;101959.47;5055017;28;20032;-49
2022/11/27 09:43:05;;;;;;;68.57;28.13;;;;;;;4.81;100.00;101959.78;5054996;28;20078;-50
2022/11/27 09:45:31;;;;;;;55.58;26.65;;;;;;;4.84;100.00;101960.00;5053942;28;20111;-46
2022/11/27 09:48:04;;;;;;;60.47;28.73;;;;;;;4.86;100.00;101969.53;5054950;28;20040;-49
2022/11/27 09:50:34;;;;;;;70.57;32.03;;;;;;;4.88;100.00;101962.91;5055211;28;20094;-49
2022/11/27 09:53:18;;;;;;;57.55;27.55;;;;;;;4.90;100.00;101953.66;5054187;28;20464;-49
2022/11/27 09:55:48;;;;;;;68.38;28.83;;;;;;;4.92;100.00;101954.66;5054479;28;20033;-48
2022/11/27 09:58:19;;;;;;;63.78;29.25;;;;;;;4.95;100.00;101944.66;5054909;28;20444;-49
2022/11/27 10:00:46;;;;;;;57.70;27.40;;;;;;;4.95;100.00;101933.56;5053672;28;20037;-49
2022/11/27 10:03:14;;;;;;;68.10;27.48;;;;;;;4.98;100.00;101931.19;5054863;28;20025;-46
2022/11/27 10:05:51;;;;;;;62.03;27.17;;;;;;;5.00;100.00;101931.31;5054082;28;20469;-45
2022/11/27 10:08:24;;;;;;;;;;;;;;;5.08;100.00;101925.06;5054952;28;20087;-45
2022/11/27 10:11:09;;;;;;;56.92;27.58;;;;;;;5.04;100.00;101928.19;5054268;28;20618;-49
2022/11/27 10:13:44;;;;;;;67.20;27.98;;;;;;;5.04;100.00;101925.66;5053777;28;20033;-49
2022/11/27 10:16:55;;;;;;;68.47;26.75;;;;;;;5.06;100.00;101914.75;5054379;28;20056;-48
2022/11/27 10:19:45;;;;;;;61.58;28.15;;;;;;;5.10;100.00;101906.50;5053221;28;20480;-50
2022/11/27 10:22:41;;;;;;;68.57;31.17;;;;;;;5.13;100.00;101905.84;5054418;28;20035;-49
2022/11/27 10:25:18;;;;;;;60.47;30.58;;;;;;;5.14;100.00;101902.50;5054644;28;20029;-50
2022/11/27 10:28:00;;;;;;;59.65;27.92;;;;;;;5.16;100.00;101895.81;5053634;28;20021;-49
2022/11/27 10:30:29;;;;;;;62.83;27.88;;;;;;;5.15;100.00;101895.72;5054451;28;20029;-49
2022/11/27 10:32:57;;;;;;;67.35;28.52;;;;;;;5.19;100.00;101893.47;5054013;28;20040;-47
2022/11/27 10:35:24;;;;;;;64.47;32.17;;;;;;;5.18;100.00;101894.25;5053663;28;20070;-49
2022/11/27 10:37:56;;;;;;;58.63;30.42;;;;;;;5.17;100.00;101879.69;5054082;28;20209;-48
2022/11/27 10:40:28;;;;;;;68.07;30.50;;;;;;;5.20;100.00;101877.38;5054419;28;20112;-48
2022/11/27 10:43:03;;;;;;;59.92;28.65;;;;;;;5.20;100.00;101879.94;5053067;28;20056;-49
2022/11/27 10:46:03;;;;;;;73.70;31.08;;;;;;;5.25;100.00;101873.47;5054342;28;20035;-50
2022/11/27 10:48:28;;;;;;;65.28;28.05;;;;;;;5.27;100.00;101866.75;5046199;28;20044;-48
2022/11/27 10:50:54;;;;;;;60.53;29.05;;;;;;;5.27;100.00;101866.75;5053344;28;20029;-49
2022/11/27 10:53:34;;;;;;;60.30;28.02;;;;;;;5.33;100.00;101868.84;5053856;28;20021;-49
2022/11/27 10:56:36;;;;;;;56.83;27.48;;;;;;;5.33;100.00;101860.28;5053280;28;20025;-49
2022/11/27 10:59:10;;;;;;;64.72;29.60;;;;;;;5.32;100.00;101855.94;5053758;28;20033;-49
2022/11/27 11:01:43;;;;;;;61.92;27.70;;;;;;;5.32;100.00;101849.19;5053566;28;20457;-49
2022/11/27 11:04:10;;;;;;;175.18;69.07;;;;;;;5.37;100.00;101849.47;5052975;28;20067;-49
2022/11/27 11:06:41;;;;;;;156.57;62.88;;;;;;;5.37;100.00;101849.47;5053163;28;20024;-49
2022/11/27 11:09:21;;;;;;;60.45;27.63;;;;;;;5.38;100.00;101843.59;5052929;28;20610;-49
2022/11/27 11:11:46;;;;;;;63.45;28.33;;;;;;;5.37;100.00;101842.72;5053148;28;20151;-49
2022/11/27 11:14:23;;;;;;;55.58;28.95;;;;;;;5.40;100.00;101839.47;5053650;28;20036;-49
2022/11/27 11:16:49;;;;;;;57.88;27.77;;;;;;;5.41;100.00;101828.44;5052593;28;20025;-49